createdAt,value
2023-04-18T00:00:42.162Z,24.48
2023-04-18T00:03:09.518Z,25.50
2023-04-18T00:05:36.679Z,24.40
2023-04-18T00:08:03.713Z,23.48
2023-04-18T00:10:30.398Z,23.60
2023-04-18T00:12:58.157Z,24.13
2023-04-18T00:15:25.723Z,24.90
2023-04-18T00:17:56.259Z,23.98
2023-04-18T00:20:26.648Z,24.95
2023-04-18T00:22:54.892Z,23.92
2023-04-18T00:25:21.680Z,24.38
2023-04-18T00:27:48.350Z,24.20
2023-04-18T00:30:15.299Z,24.35
2023-04-18T00:32:41.981Z,25.00
2023-04-18T00:35:08.888Z,22.77
2023-04-18T00:37:35.516Z,24.33
2023-04-18T00:40:02.125Z,24.67
2023-04-18T00:42:29.322Z,22.00
2023-04-18T00:44:56.195Z,23.10
2023-04-18T00:47:22.949Z,23.35
2023-04-18T00:49:49.871Z,24.08
2023-04-18T00:52:18.310Z,23.80
2023-04-18T00:54:45.231Z,25.17
2023-04-18T00:57:12.803Z,24.58
2023-04-18T00:59:39.727Z,23.80
2023-04-18T01:02:07.994Z,23.15
2023-04-18T01:04:34.886Z,24.58
2023-04-18T01:07:02.364Z,22.80
2023-04-18T01:09:29.492Z,24.08
2023-04-18T01:11:56.496Z,24.67
2023-04-18T01:14:23.855Z,22.27
2023-04-18T01:16:50.536Z,24.45
2023-04-18T01:19:19.485Z,25.58
2023-04-18T01:21:46.142Z,23.75
2023-04-18T01:24:17.647Z,24.38
2023-04-18T01:26:49.539Z,23.00
2023-04-18T01:29:16.377Z,23.65
2023-04-18T01:31:43.264Z,22.60
2023-04-18T01:34:10.043Z,23.92
2023-04-18T01:36:38.349Z,23.70
2023-04-18T01:39:05.242Z,24.02
2023-04-18T01:41:32.566Z,24.67
2023-04-18T01:43:59.815Z,24.75
2023-04-18T01:46:26.889Z,24.90
2023-04-18T01:48:53.912Z,25.95
2023-04-18T01:51:21.401Z,24.17
2023-04-18T01:53:48.231Z,25.48
2023-04-18T01:56:14.877Z,24.90
2023-04-18T01:58:41.658Z,25.08
2023-04-18T02:01:08.679Z,27.27
2023-04-18T02:03:35.656Z,25.90
2023-04-18T02:06:03.690Z,26.77
2023-04-18T02:08:32.828Z,26.23
2023-04-18T02:11:01.126Z,26.50
2023-04-18T02:13:28.128Z,26.92
2023-04-18T02:15:54.762Z,27.10
2023-04-18T02:18:24.586Z,25.60
2023-04-18T02:20:51.817Z,27.75
2023-04-18T02:23:18.819Z,27.00
2023-04-18T02:25:45.735Z,28.45
2023-04-18T02:28:12.418Z,26.85
2023-04-18T02:30:39.165Z,28.80
2023-04-18T02:33:06.282Z,30.27
2023-04-18T02:35:32.931Z,29.20
2023-04-18T02:37:59.734Z,28.77
2023-04-18T02:40:26.356Z,30.42
2023-04-18T02:42:52.952Z,28.25
2023-04-18T02:45:19.655Z,29.48
2023-04-18T02:47:54.421Z,30.70
2023-04-18T02:50:23.191Z,29.17
2023-04-18T02:52:50.735Z,27.25
2023-04-18T02:55:19.423Z,29.55
2023-04-18T02:57:46.408Z,30.00
2023-04-18T03:03:08.919Z,26.35
2023-04-18T03:05:40.355Z,26.38
2023-04-18T03:08:07.276Z,26.58
2023-04-18T03:10:35.918Z,27.50
2023-04-18T03:13:03.039Z,27.67
2023-04-18T03:15:33.244Z,28.15
2023-04-18T03:18:00.791Z,30.15
2023-04-18T03:20:31.195Z,28.40
2023-04-18T03:22:57.776Z,27.75
2023-04-18T03:25:26.436Z,23.58
2023-04-18T03:27:53.492Z,26.42
2023-04-18T03:30:22.264Z,27.50
2023-04-18T03:32:55.907Z,28.10
2023-04-18T03:35:22.942Z,29.73
2023-04-18T03:37:50.372Z,30.05
2023-04-18T03:40:30.543Z,28.17
2023-04-18T03:43:02.774Z,29.20
2023-04-18T03:45:29.885Z,29.50
2023-04-18T03:47:56.599Z,32.00
2023-04-18T03:50:25.576Z,33.65
2023-04-18T03:52:54.771Z,33.10
2023-04-18T03:55:21.689Z,32.05
2023-04-18T03:57:48.557Z,33.85
2023-04-18T04:02:57.635Z,31.08
2023-04-18T04:05:24.486Z,34.50
2023-04-18T04:07:51.227Z,33.33
2023-04-18T04:10:18.246Z,35.53
2023-04-18T04:12:45.125Z,35.88
2023-04-18T04:15:12.208Z,33.03
2023-04-18T04:17:45.202Z,29.63
2023-04-18T04:20:12.651Z,34.15
2023-04-18T04:22:39.589Z,33.65
2023-04-18T04:25:07.515Z,33.58
2023-04-18T04:27:38.882Z,35.25
2023-04-18T04:30:08.652Z,30.63
2023-04-18T04:32:35.753Z,34.28
2023-04-18T04:35:02.646Z,34.63
2023-04-18T04:37:29.393Z,34.63
2023-04-18T04:40:19.522Z,30.17
2023-04-18T04:42:54.079Z,33.33
2023-04-18T04:45:26.851Z,32.05
2023-04-18T04:47:53.482Z,31.05
2023-04-18T04:50:21.362Z,31.65
2023-04-18T04:52:48.328Z,32.97
2023-04-18T04:55:15.773Z,31.88
2023-04-18T04:57:44.730Z,33.30
2023-04-18T05:00:37.100Z,32.95
2023-04-18T05:03:03.857Z,32.13
2023-04-18T05:05:30.659Z,30.05
2023-04-18T05:07:57.277Z,27.02
2023-04-18T05:10:23.920Z,30.52
2023-04-18T05:12:50.559Z,31.73
2023-04-18T05:15:18.245Z,29.02
2023-04-18T05:17:45.036Z,29.35
2023-04-18T05:20:12.051Z,30.98
2023-04-18T05:22:38.658Z,32.22
2023-04-18T05:25:05.824Z,29.48
2023-04-18T05:27:32.489Z,30.75
2023-04-18T05:29:59.355Z,29.80
2023-04-18T05:32:25.999Z,28.92
2023-04-18T05:34:52.680Z,26.58
2023-04-18T05:37:19.350Z,28.52
2023-04-18T05:39:46.027Z,30.85
2023-04-18T05:42:12.695Z,31.60
2023-04-18T05:44:39.650Z,30.45
2023-04-18T05:47:06.620Z,30.65
2023-04-18T05:49:33.466Z,30.10
2023-04-18T05:52:00.741Z,31.50
2023-04-18T05:54:27.463Z,30.42
2023-04-18T05:56:55.102Z,31.52
2023-04-18T05:59:21.770Z,31.83
2023-04-18T06:01:49.241Z,22.55
2023-04-18T06:04:16.693Z,24.85
2023-04-18T06:06:43.813Z,33.63
2023-04-18T06:09:10.513Z,28.63
2023-04-18T06:11:37.124Z,30.67
2023-04-18T06:14:03.859Z,29.65
2023-04-18T06:16:30.779Z,31.25
2023-04-18T06:19:00.860Z,30.38
2023-04-18T06:21:27.985Z,33.97
2023-04-18T06:23:54.731Z,33.72
2023-04-18T06:26:21.673Z,29.38
2023-04-18T06:28:48.333Z,33.72
2023-04-18T06:31:15.010Z,32.67
2023-04-18T06:33:42.155Z,34.17
2023-04-18T06:36:09.079Z,32.28
2023-04-18T06:38:35.820Z,31.40
2023-04-18T06:41:02.504Z,31.90
2023-04-18T06:43:29.158Z,30.48
2023-04-18T06:45:56.618Z,31.02
2023-04-18T06:48:23.563Z,30.48
2023-04-18T06:50:50.454Z,31.92
2023-04-18T06:53:17.069Z,33.50
2023-04-18T06:55:43.869Z,32.80
2023-04-18T06:58:13.485Z,33.83
2023-04-18T07:00:40.109Z,32.75
2023-04-18T07:03:11.265Z,26.60
2023-04-18T07:05:39.229Z,32.53
2023-04-18T07:08:06.116Z,32.15
2023-04-18T07:10:32.949Z,33.38
2023-04-18T07:12:59.756Z,31.83
2023-04-18T07:15:26.475Z,35.88
2023-04-18T07:17:53.338Z,34.50
2023-04-18T07:20:20.360Z,31.95
2023-04-18T07:22:49.056Z,31.60
2023-04-18T07:25:15.776Z,32.80
2023-04-18T07:27:42.552Z,33.78
2023-04-18T07:30:10.139Z,32.10
2023-04-18T07:32:36.760Z,32.60
2023-04-18T07:35:04.040Z,33.15
2023-04-18T07:37:31.136Z,31.40
2023-04-18T07:39:58.568Z,34.78
2023-04-18T07:42:25.198Z,28.55
2023-04-18T07:44:58.546Z,34.65
2023-04-18T07:47:28.306Z,33.65
2023-04-18T07:49:56.690Z,31.17
2023-04-18T07:52:23.394Z,33.03
2023-04-18T07:54:50.138Z,32.95
2023-04-18T07:57:17.137Z,33.10
2023-04-18T07:59:43.766Z,34.00
2023-04-18T08:02:10.495Z,34.78
2023-04-18T08:04:37.439Z,36.00
2023-04-18T08:07:04.137Z,36.53
2023-04-18T08:09:30.890Z,38.33
2023-04-18T08:11:59.322Z,36.42
2023-04-18T08:14:25.922Z,34.88
2023-04-18T08:16:52.641Z,36.35
2023-04-18T08:19:19.301Z,37.08
2023-04-18T08:21:45.989Z,35.45
2023-04-18T08:24:12.606Z,37.40
2023-04-18T08:26:39.276Z,28.65
2023-04-18T08:29:06.201Z,30.38
2023-04-18T08:31:32.882Z,34.70
2023-04-18T08:34:00.089Z,37.58
2023-04-18T08:36:27.895Z,36.92
2023-04-18T08:38:54.558Z,36.63
2023-04-18T08:41:23.226Z,39.63
2023-04-18T08:43:50.472Z,40.45
2023-04-18T08:46:17.365Z,39.10
2023-04-18T08:48:44.533Z,40.08
2023-04-18T08:51:11.263Z,40.13
2023-04-18T08:53:39.194Z,36.90
2023-04-18T08:56:10.264Z,39.55
2023-04-18T08:58:37.101Z,37.47
2023-04-18T09:01:03.860Z,34.55
2023-04-18T09:03:39.519Z,36.10
2023-04-18T09:06:15.962Z,39.67
2023-04-18T09:08:43.929Z,39.25
2023-04-18T09:11:31.537Z,35.42
2023-04-18T09:14:02.209Z,34.97
2023-04-18T09:16:44.384Z,37.10
2023-04-18T09:19:13.803Z,36.92
2023-04-18T09:21:44.231Z,36.05
2023-04-18T09:24:32.709Z,35.75
2023-04-18T09:27:01.086Z,34.65
2023-04-18T09:29:46.772Z,37.10
2023-04-18T09:32:29.267Z,35.42
2023-04-18T09:35:04.026Z,36.80
2023-04-18T09:37:31.481Z,35.15
2023-04-18T09:39:58.390Z,35.53
2023-04-18T09:42:28.898Z,36.03
2023-04-18T09:45:07.563Z,35.95
2023-04-18T09:47:36.240Z,36.85
2023-04-18T09:50:08.428Z,38.85
2023-04-18T09:52:37.957Z,37.10
2023-04-18T09:55:07.407Z,35.47
2023-04-18T09:57:35.906Z,36.72
2023-04-18T10:00:24.667Z,36.75
2023-04-18T10:03:04.955Z,37.80
2023-04-18T10:05:34.018Z,37.28
2023-04-18T10:08:00.945Z,41.78
2023-04-18T10:10:27.569Z,40.00
2023-04-18T10:12:56.508Z,35.35
2023-04-18T10:15:26.286Z,39.15
2023-04-18T10:18:05.657Z,37.17
2023-04-18T10:20:34.498Z,39.17
2023-04-18T10:23:37.249Z,39.28
2023-04-18T10:26:05.819Z,38.50
2023-04-18T10:28:54.950Z,37.65
2023-04-18T10:31:23.672Z,37.85
2023-04-18T10:36:28.456Z,36.20
2023-04-18T10:39:00.584Z,36.97
2023-04-18T10:41:29.827Z,37.42
2023-04-18T10:44:24.718Z,36.83
2023-04-18T10:46:51.479Z,38.87
2023-04-18T10:49:27.010Z,36.65
2023-04-18T10:51:58.487Z,42.30
2023-04-18T10:54:52.029Z,37.20
2023-04-18T10:57:18.757Z,40.28
2023-04-18T10:59:49.847Z,36.20
2023-04-18T11:02:32.208Z,36.33
2023-04-18T11:05:00.608Z,36.95
2023-04-18T11:07:33.912Z,36.30
2023-04-18T11:10:01.392Z,37.70
2023-04-18T11:12:32.869Z,40.35
2023-04-18T11:15:02.548Z,41.58
2023-04-18T11:17:35.577Z,43.58
2023-04-18T11:20:16.980Z,38.10
2023-04-18T11:22:48.563Z,41.88
2023-04-18T11:25:16.313Z,38.08
2023-04-18T11:27:46.134Z,39.15
2023-04-18T11:30:13.946Z,39.97
2023-04-18T11:32:41.034Z,43.80
2023-04-18T11:35:12.815Z,43.25
2023-04-18T11:37:40.921Z,42.00
2023-04-18T11:40:11.522Z,44.55
2023-04-18T11:42:39.678Z,41.95
2023-04-18T11:45:10.053Z,43.67
2023-04-18T11:47:36.707Z,45.83
2023-04-18T11:50:06.577Z,42.15
2023-04-18T11:52:35.363Z,40.83
2023-04-18T11:55:21.703Z,45.30
2023-04-18T11:57:56.239Z,44.22
2023-04-18T12:00:37.433Z,46.85
2023-04-18T12:03:15.450Z,43.63
2023-04-18T12:05:42.728Z,42.28
2023-04-18T12:08:11.410Z,41.75
2023-04-18T12:10:46.033Z,43.13
2023-04-18T12:13:12.891Z,45.03
2023-04-18T12:15:43.299Z,47.15
2023-04-18T12:18:12.029Z,42.90
2023-04-18T12:20:39.888Z,43.38
2023-04-18T12:23:07.822Z,42.17
2023-04-18T12:25:34.964Z,42.70
2023-04-18T12:28:15.698Z,42.17
2023-04-18T12:30:42.589Z,41.85
2023-04-18T12:33:09.487Z,43.70
2023-04-18T12:35:36.590Z,44.20
2023-04-18T12:38:04.552Z,43.22
2023-04-18T12:40:31.271Z,42.03
2023-04-18T12:42:58.016Z,44.30
2023-04-18T12:45:25.056Z,41.58
2023-04-18T12:47:52.920Z,45.65
2023-04-18T12:50:25.288Z,45.45
2023-04-18T12:52:53.535Z,42.78
2023-04-18T12:55:21.148Z,43.80
2023-04-18T12:57:47.864Z,44.90
2023-04-18T13:00:14.767Z,44.20
2023-04-18T13:02:44.041Z,46.85
2023-04-18T13:05:13.104Z,47.40
2023-04-18T13:07:42.497Z,44.50
2023-04-18T13:10:12.088Z,45.63
2023-04-18T13:12:40.561Z,44.50
2023-04-18T13:15:08.448Z,45.25
2023-04-18T13:17:38.599Z,46.22
2023-04-18T13:20:10.483Z,46.42
2023-04-18T13:22:38.017Z,44.83
2023-04-18T13:25:05.650Z,46.47
2023-04-18T13:27:32.345Z,46.20
2023-04-18T13:30:05.061Z,42.92
2023-04-18T13:32:31.817Z,46.65
2023-04-18T13:34:58.588Z,45.08
2023-04-18T13:37:26.611Z,40.35
2023-04-18T13:39:53.203Z,43.42
2023-04-18T13:42:20.297Z,44.58
2023-04-18T13:44:47.635Z,42.97
2023-04-18T13:47:14.510Z,41.20
2023-04-18T13:49:41.202Z,38.80
2023-04-18T13:52:08.002Z,40.08
2023-04-18T13:54:34.924Z,38.55
2023-04-18T13:57:06.832Z,40.97
2023-04-18T13:59:33.653Z,40.47
2023-04-18T14:02:00.502Z,38.38
2023-04-18T14:04:27.408Z,39.40
2023-04-18T14:06:55.430Z,41.75
2023-04-18T14:09:22.194Z,42.03
2023-04-18T14:11:48.830Z,40.83
2023-04-18T14:14:15.575Z,39.65
2023-04-18T14:16:42.161Z,41.03
2023-04-18T14:19:08.848Z,42.53
2023-04-18T14:21:35.818Z,42.90
2023-04-18T14:24:02.435Z,40.15
2023-04-18T14:26:29.281Z,41.40
2023-04-18T14:28:56.499Z,40.45
2023-04-18T14:31:23.381Z,38.08
2023-04-18T14:33:50.141Z,40.63
2023-04-18T14:36:17.179Z,40.15
2023-04-18T14:38:48.388Z,41.08
2023-04-18T14:41:15.251Z,41.40
2023-04-18T14:43:41.849Z,41.30
2023-04-18T14:46:13.175Z,41.90
2023-04-18T14:48:39.921Z,41.58
2023-04-18T14:51:07.065Z,42.53
2023-04-18T14:53:34.013Z,41.78
2023-04-18T14:56:00.658Z,41.50
2023-04-18T14:58:27.316Z,40.28
2023-04-18T15:00:53.978Z,41.50
2023-04-18T15:03:20.800Z,41.42
2023-04-18T15:05:48.852Z,42.10
2023-04-18T15:08:16.044Z,41.03
2023-04-18T15:10:42.784Z,41.30
2023-04-18T15:13:10.867Z,41.72
2023-04-18T15:15:39.481Z,41.53
2023-04-18T15:18:07.763Z,42.85
2023-04-18T15:20:36.004Z,42.97
2023-04-18T15:23:03.032Z,43.28
2023-04-18T15:25:30.430Z,43.78
2023-04-18T15:27:58.208Z,43.33
2023-04-18T15:30:25.417Z,44.97
2023-04-18T15:32:53.764Z,41.80
2023-04-18T15:35:20.699Z,42.70
2023-04-18T15:37:47.577Z,43.80
2023-04-18T15:40:16.302Z,42.65
2023-04-18T15:42:43.579Z,42.45
2023-04-18T15:45:10.854Z,41.15
2023-04-18T15:47:38.819Z,41.20
2023-04-18T15:50:06.896Z,39.83
2023-04-18T15:52:33.742Z,39.92
2023-04-18T15:55:00.841Z,40.40
2023-04-18T15:57:29.558Z,39.78
2023-04-18T15:59:56.610Z,37.80
2023-04-18T16:02:23.334Z,39.20
2023-04-18T16:04:50.448Z,40.97
2023-04-18T16:07:17.120Z,40.67
2023-04-18T16:09:43.774Z,39.22
2023-04-18T16:12:10.442Z,40.90
2023-04-18T16:14:37.503Z,43.85
2023-04-18T16:17:04.151Z,42.60
2023-04-18T16:19:33.913Z,40.53
2023-04-18T16:22:02.769Z,42.63
2023-04-18T16:24:30.079Z,42.25
2023-04-18T16:26:56.773Z,44.72
2023-04-18T16:29:23.710Z,43.30
2023-04-18T16:31:51.617Z,43.42
2023-04-18T16:34:18.515Z,42.58
2023-04-18T16:36:45.174Z,44.28
2023-04-18T16:39:11.956Z,42.38
2023-04-18T16:41:38.652Z,42.13
2023-04-18T16:44:05.365Z,40.95
2023-04-18T16:46:32.333Z,42.75
2023-04-18T16:48:59.373Z,44.88
2023-04-18T16:51:26.782Z,41.80
2023-04-18T16:53:53.433Z,41.22
2023-04-18T16:56:20.213Z,43.55
2023-04-18T16:58:46.872Z,44.22
2023-04-18T17:01:13.588Z,41.70
2023-04-18T17:03:40.833Z,43.97
2023-04-18T17:06:07.585Z,43.05
2023-04-18T17:08:34.262Z,44.20
2023-04-18T17:11:02.161Z,44.03
2023-04-18T17:13:31.269Z,46.45
2023-04-18T17:15:58.153Z,45.67
2023-04-18T17:18:25.542Z,47.85
2023-04-18T17:20:52.353Z,46.65
2023-04-18T17:23:19.178Z,45.90
2023-04-18T17:25:46.388Z,46.67
2023-04-18T17:28:13.828Z,44.60
2023-04-18T17:30:41.808Z,42.72
2023-04-18T17:33:09.646Z,43.42
2023-04-18T17:35:36.289Z,43.55
2023-04-18T17:38:03.277Z,42.22
2023-04-18T17:40:29.937Z,42.70
2023-04-18T17:42:56.635Z,41.38
2023-04-18T17:45:23.913Z,42.83
2023-04-18T17:47:50.798Z,43.13
2023-04-18T17:50:17.709Z,42.38
2023-04-18T17:52:46.194Z,42.20
2023-04-18T17:55:12.962Z,42.28
2023-04-18T17:57:41.674Z,43.75
2023-04-18T18:00:11.655Z,43.45
2023-04-18T18:02:42.620Z,42.38
2023-04-18T18:05:13.769Z,42.83
2023-04-18T18:07:43.031Z,41.05
2023-04-18T18:10:10.691Z,40.95
2023-04-18T18:12:38.076Z,41.35
2023-04-18T18:15:05.517Z,43.38
2023-04-18T18:17:32.190Z,36.63
2023-04-18T18:19:59.057Z,37.22
2023-04-18T18:22:26.162Z,36.80
2023-04-18T18:24:53.057Z,36.25
2023-04-18T18:27:22.980Z,36.58
2023-04-18T18:29:50.297Z,36.70
2023-04-18T18:32:17.039Z,36.75
2023-04-18T18:34:43.682Z,36.78
2023-04-18T18:37:10.306Z,36.63
2023-04-18T18:39:37.306Z,33.70
2023-04-18T18:42:03.968Z,36.00
2023-04-18T18:44:30.659Z,36.35
2023-04-18T18:46:58.644Z,38.75
2023-04-18T18:49:26.394Z,33.20
2023-04-18T18:51:53.355Z,32.92
2023-04-18T18:54:20.175Z,33.17
2023-04-18T18:56:46.938Z,33.65
2023-04-18T18:59:13.880Z,33.72
2023-04-18T19:01:40.968Z,32.70
2023-04-18T19:04:07.991Z,33.00
2023-04-18T19:06:34.874Z,32.72
2023-04-18T19:09:01.844Z,31.58
2023-04-18T19:11:29.104Z,31.50
2023-04-18T19:13:55.734Z,30.60
2023-04-18T19:16:22.636Z,30.42
2023-04-18T19:18:50.377Z,29.65
2023-04-18T19:21:17.465Z,31.02
2023-04-18T19:23:44.217Z,31.25
2023-04-18T19:26:11.042Z,30.65
2023-04-18T19:28:37.966Z,30.35
2023-04-18T19:31:04.957Z,30.38
2023-04-18T19:33:31.697Z,31.95
2023-04-18T19:35:58.639Z,32.40
2023-04-18T19:38:25.602Z,32.45
2023-04-18T19:40:52.310Z,30.48
2023-04-18T19:43:19.027Z,32.45
2023-04-18T19:45:45.843Z,31.85
2023-04-18T19:48:12.466Z,30.70
2023-04-18T19:50:40.591Z,31.50
2023-04-18T19:53:07.443Z,30.85
2023-04-18T19:55:34.200Z,33.35
2023-04-18T19:58:00.873Z,31.92
2023-04-18T20:00:28.283Z,33.35
2023-04-18T20:02:55.126Z,33.38
2023-04-18T20:05:22.200Z,31.50
2023-04-18T20:07:48.990Z,31.77
2023-04-18T20:10:15.827Z,32.22
2023-04-18T20:12:42.456Z,32.83
2023-04-18T20:15:09.548Z,33.45
2023-04-18T20:17:36.648Z,33.45
2023-04-18T20:20:04.396Z,32.35
2023-04-18T20:22:32.167Z,33.00
2023-04-18T20:24:58.787Z,31.27
2023-04-18T20:27:25.444Z,32.72
2023-04-18T20:29:52.478Z,32.95
2023-04-18T20:32:19.205Z,32.70
2023-04-18T20:34:46.596Z,32.63
2023-04-18T20:37:18.608Z,34.38
2023-04-18T20:39:45.666Z,33.15
2023-04-18T20:42:14.477Z,34.55
2023-04-18T20:44:46.547Z,35.05
2023-04-18T20:47:15.272Z,32.63
2023-04-18T20:49:42.695Z,34.60
2023-04-18T20:52:14.133Z,34.17
2023-04-18T20:54:41.716Z,35.35
2023-04-18T20:57:08.456Z,34.83
2023-04-18T20:59:35.194Z,36.15
2023-04-18T21:02:02.078Z,35.05
2023-04-18T21:04:29.612Z,32.88
2023-04-18T21:06:56.615Z,37.50
2023-04-18T21:09:23.236Z,29.40
2023-04-18T21:11:50.040Z,35.88
2023-04-18T21:14:17.129Z,40.17
2023-04-18T21:16:44.415Z,34.92
2023-04-18T21:19:11.374Z,34.67
2023-04-18T21:21:37.969Z,32.92
2023-04-18T21:24:05.541Z,32.47
2023-04-18T21:26:32.191Z,33.35
2023-04-18T21:29:01.582Z,31.70
2023-04-18T21:31:31.912Z,32.28
2023-04-18T21:34:00.901Z,30.65
2023-04-18T21:36:28.645Z,30.75
2023-04-18T21:38:56.261Z,31.17
2023-04-18T21:41:23.649Z,29.55
2023-04-18T21:43:51.235Z,29.02
2023-04-18T21:46:18.518Z,30.88
2023-04-18T21:48:46.886Z,28.45
2023-04-18T21:51:16.505Z,29.25
2023-04-18T21:53:43.355Z,30.73
2023-04-18T21:56:10.815Z,28.30
2023-04-18T21:58:37.725Z,28.45
2023-04-18T22:01:04.468Z,25.52
2023-04-18T22:03:33.282Z,26.73
2023-04-18T22:06:01.153Z,28.23
2023-04-18T22:08:28.158Z,28.77
2023-04-18T22:10:57.452Z,27.08
2023-04-18T22:13:25.539Z,26.73
2023-04-18T22:15:52.293Z,27.35
2023-04-18T22:18:19.181Z,25.40
2023-04-18T22:20:49.184Z,25.10
2023-04-18T22:23:15.829Z,24.52
2023-04-18T22:25:42.424Z,24.88
2023-04-18T22:28:09.025Z,25.55
2023-04-18T22:30:35.831Z,24.95
2023-04-18T22:33:03.006Z,25.25
2023-04-18T22:35:29.731Z,23.70
2023-04-18T22:37:56.597Z,24.65
2023-04-18T22:40:23.298Z,24.20
2023-04-18T22:42:51.743Z,24.05
2023-04-18T22:45:19.286Z,23.15
2023-04-18T22:47:46.578Z,23.95
2023-04-18T22:50:14.481Z,24.75
2023-04-18T22:52:41.292Z,23.65
2023-04-18T22:55:08.979Z,23.70
2023-04-18T22:57:35.938Z,24.60
2023-04-18T23:00:04.637Z,23.45
2023-04-18T23:02:31.395Z,23.80
2023-04-18T23:04:59.667Z,24.60
2023-04-18T23:07:26.480Z,24.83
2023-04-18T23:09:53.267Z,23.30
2023-04-18T23:12:19.917Z,24.38
2023-04-18T23:14:47.341Z,24.25
2023-04-18T23:17:13.976Z,25.45
2023-04-18T23:19:40.776Z,24.42
2023-04-18T23:22:07.367Z,24.65
2023-04-18T23:24:34.090Z,25.20
2023-04-18T23:27:01.441Z,25.10
2023-04-18T23:29:28.044Z,24.48
2023-04-18T23:31:54.711Z,24.77
2023-04-18T23:34:21.355Z,24.30
2023-04-18T23:36:47.997Z,24.40
2023-04-18T23:39:14.631Z,25.88
2023-04-18T23:41:41.308Z,24.42
2023-04-18T23:44:07.903Z,23.77
2023-04-18T23:46:36.363Z,24.02
2023-04-18T23:49:03.549Z,23.55
2023-04-18T23:51:30.909Z,24.67
2023-04-18T23:53:57.582Z,23.67
2023-04-18T23:56:24.238Z,24.38
2023-04-18T23:58:50.900Z,24.58
